createdAt,value
2023-07-08T00:02:18.298Z,6.83
2023-07-08T00:04:46.442Z,7.83
2023-07-08T00:07:15.101Z,7.33
2023-07-08T00:09:43.027Z,7.00
2023-07-08T00:12:12.621Z,7.00
2023-07-08T00:14:41.889Z,7.50
2023-07-08T00:17:14.329Z,7.10
2023-07-08T00:19:42.763Z,6.47
2023-07-08T00:22:14.557Z,7.70
2023-07-08T00:24:44.203Z,6.73
2023-07-08T00:27:14.164Z,7.00
2023-07-08T00:29:43.705Z,6.30
2023-07-08T00:32:16.193Z,6.90
2023-07-08T00:34:44.317Z,6.87
2023-07-08T00:37:13.724Z,6.67
2023-07-08T00:39:41.740Z,7.50
2023-07-08T00:42:17.112Z,7.17
2023-07-08T00:44:46.419Z,6.60
2023-07-08T00:47:16.700Z,7.00
2023-07-08T00:49:47.936Z,7.97
2023-07-08T00:52:18.825Z,7.90
2023-07-08T00:54:46.680Z,7.27
2023-07-08T00:57:14.643Z,7.90
2023-07-08T00:59:48.322Z,7.47
2023-07-08T01:02:18.011Z,8.80
2023-07-08T01:04:51.194Z,7.67
2023-07-08T01:07:22.525Z,7.23
2023-07-08T01:09:54.713Z,7.73
2023-07-08T01:12:25.479Z,7.20
2023-07-08T01:14:55.580Z,8.07
2023-07-08T01:17:24.457Z,8.30
2023-07-08T01:19:56.475Z,7.77
2023-07-08T01:22:25.925Z,8.33
2023-07-08T01:24:54.541Z,7.43
2023-07-08T01:27:22.504Z,8.50
2023-07-08T01:29:50.355Z,9.37
2023-07-08T01:32:20.288Z,9.10
2023-07-08T01:35:01.519Z,9.33
2023-07-08T01:37:35.650Z,8.20
2023-07-08T01:40:27.526Z,8.60
2023-07-08T01:42:55.939Z,8.43
2023-07-08T01:45:25.666Z,7.53
2023-07-08T01:47:57.685Z,8.73
2023-07-08T01:50:25.841Z,9.10
2023-07-08T01:53:00.403Z,9.03
2023-07-08T01:55:29.873Z,8.40
2023-07-08T01:57:58.526Z,8.80
2023-07-08T02:00:26.907Z,8.33
2023-07-08T02:02:55.239Z,8.87
2023-07-08T02:05:23.325Z,9.70
2023-07-08T02:07:51.334Z,8.30
2023-07-08T02:10:20.695Z,8.80
2023-07-08T02:12:48.564Z,8.53
2023-07-08T02:15:16.584Z,8.03
2023-07-08T02:17:44.470Z,8.33
2023-07-08T02:20:15.352Z,8.43
2023-07-08T02:22:43.243Z,8.37
2023-07-08T02:25:11.326Z,8.40
2023-07-08T02:27:40.867Z,8.40
2023-07-08T02:30:10.102Z,8.30
2023-07-08T02:32:39.878Z,8.70
2023-07-08T02:35:08.779Z,8.40
2023-07-08T02:37:36.861Z,8.27
2023-07-08T02:40:05.242Z,7.53
2023-07-08T02:42:33.181Z,8.27
2023-07-08T02:45:02.468Z,7.80
2023-07-08T02:47:31.481Z,8.30
2023-07-08T02:49:59.474Z,8.63
2023-07-08T02:52:27.371Z,8.30
2023-07-08T02:54:55.298Z,8.73
2023-07-08T02:57:23.239Z,7.97
2023-07-08T02:59:51.191Z,8.57
2023-07-08T03:02:20.552Z,8.40
2023-07-08T03:04:51.070Z,8.67
2023-07-08T03:07:19.129Z,8.77
2023-07-08T03:09:47.018Z,9.30
2023-07-08T03:12:14.905Z,8.80
2023-07-08T03:14:42.754Z,7.93
2023-07-08T03:17:10.699Z,8.77
2023-07-08T03:19:40.050Z,9.80
2023-07-08T03:22:08.879Z,15.67
2023-07-08T03:24:37.115Z,15.43
2023-07-08T03:27:08.715Z,16.50
2023-07-08T03:29:38.573Z,16.80
2023-07-08T03:32:08.440Z,11.90
2023-07-08T03:34:36.559Z,10.93
2023-07-08T03:37:06.680Z,10.83
2023-07-08T03:39:34.649Z,9.17
2023-07-08T03:42:02.973Z,9.50
2023-07-08T03:44:31.380Z,8.87
2023-07-08T03:46:59.408Z,9.53
2023-07-08T03:49:30.414Z,8.93
2023-07-08T03:51:58.498Z,9.17
2023-07-08T03:54:28.783Z,8.30
2023-07-08T03:56:59.102Z,8.77
2023-07-08T03:59:28.445Z,8.80
2023-07-08T04:01:58.542Z,9.00
2023-07-08T04:04:27.838Z,8.87
2023-07-08T04:06:55.999Z,7.90
2023-07-08T04:09:25.125Z,9.13
2023-07-08T04:11:55.276Z,8.00
2023-07-08T04:14:23.177Z,7.17
2023-07-08T04:16:53.951Z,8.00
2023-07-08T04:19:23.851Z,8.20
2023-07-08T04:21:51.999Z,8.27
2023-07-08T04:24:20.070Z,7.43
2023-07-08T04:26:49.372Z,8.30
2023-07-08T04:29:20.060Z,7.80
2023-07-08T04:31:48.302Z,7.87
2023-07-08T04:34:17.084Z,7.50
2023-07-08T04:36:45.201Z,8.50
2023-07-08T04:39:14.018Z,7.40
2023-07-08T04:41:45.156Z,7.27
2023-07-08T04:44:13.533Z,7.97
2023-07-08T04:46:47.796Z,7.03
2023-07-08T04:49:16.178Z,7.77
2023-07-08T04:51:44.104Z,7.30
2023-07-08T04:54:12.400Z,7.73
2023-07-08T04:56:42.291Z,7.20
2023-07-08T04:59:11.253Z,7.60
2023-07-08T05:01:39.513Z,7.60
2023-07-08T05:04:09.515Z,7.67
2023-07-08T05:06:38.069Z,8.07
2023-07-08T05:09:06.125Z,7.90
2023-07-08T05:11:34.042Z,6.97
2023-07-08T05:14:02.717Z,7.87
2023-07-08T05:16:30.857Z,7.23
2023-07-08T05:18:58.852Z,7.00
2023-07-08T05:21:30.546Z,7.60
2023-07-08T05:23:58.451Z,7.20
2023-07-08T05:26:26.338Z,7.40
2023-07-08T05:28:54.269Z,6.80
2023-07-08T05:31:23.873Z,8.10
2023-07-08T05:33:55.004Z,7.10
2023-07-08T05:36:22.875Z,6.83
2023-07-08T05:38:52.148Z,7.60
2023-07-08T05:41:20.120Z,8.23
2023-07-08T05:43:48.458Z,7.13
2023-07-08T05:46:16.606Z,7.00
2023-07-08T05:48:44.576Z,7.53
2023-07-08T05:51:12.537Z,7.20
2023-07-08T05:53:40.508Z,7.50
2023-07-08T05:56:09.837Z,7.00
2023-07-08T05:58:37.710Z,7.33
2023-07-08T06:01:06.332Z,6.60
2023-07-08T06:03:34.518Z,7.03
2023-07-08T06:06:03.362Z,7.53
2023-07-08T06:08:31.321Z,6.70
2023-07-08T06:10:59.553Z,6.83
2023-07-08T06:13:29.277Z,6.57
2023-07-08T06:15:57.600Z,7.77
2023-07-08T06:18:25.572Z,7.10
2023-07-08T06:20:54.610Z,6.67
2023-07-08T06:23:22.589Z,7.10
2023-07-08T06:25:50.537Z,7.27
2023-07-08T06:28:18.873Z,6.63
2023-07-08T06:30:48.208Z,7.30
2023-07-08T06:33:16.225Z,6.70
2023-07-08T06:35:45.007Z,6.10
2023-07-08T06:38:13.085Z,7.23
2023-07-08T06:40:40.968Z,6.20
2023-07-08T06:43:08.852Z,6.43
2023-07-08T06:45:53.497Z,6.33
2023-07-08T06:48:21.463Z,6.50
2023-07-08T06:50:49.761Z,6.13
2023-07-08T06:53:18.023Z,6.10
2023-07-08T06:55:46.777Z,6.53
2023-07-08T06:58:14.731Z,5.70
2023-07-08T07:00:44.213Z,6.67
2023-07-08T07:03:14.174Z,6.40
2023-07-08T07:05:42.357Z,6.27
2023-07-08T07:08:10.626Z,6.43
2023-07-08T07:10:38.766Z,6.97
2023-07-08T07:13:07.121Z,6.73
2023-07-08T07:15:35.131Z,6.90
2023-07-08T07:18:03.241Z,6.47
2023-07-08T07:20:32.937Z,6.60
2023-07-08T07:23:00.910Z,6.97
2023-07-08T07:25:28.845Z,7.03
2023-07-08T07:27:56.979Z,7.47
2023-07-08T07:30:25.426Z,6.50
2023-07-08T07:32:53.456Z,6.47
2023-07-08T07:35:21.374Z,7.20
2023-07-08T07:37:50.628Z,6.83
2023-07-08T07:40:18.767Z,6.67
2023-07-08T07:42:48.433Z,6.20
2023-07-08T07:45:16.448Z,7.00
2023-07-08T07:47:44.372Z,6.83
2023-07-08T07:50:12.786Z,7.60
2023-07-08T07:52:40.687Z,6.20
2023-07-08T07:55:10.602Z,7.37
2023-07-08T07:57:39.126Z,6.50
2023-07-08T08:00:08.390Z,7.20
2023-07-08T08:02:41.288Z,6.70
2023-07-08T08:05:09.993Z,6.30
2023-07-08T08:07:38.245Z,6.07
2023-07-08T08:10:06.841Z,6.60
2023-07-08T08:12:48.651Z,6.83
2023-07-08T08:15:22.112Z,6.20
2023-07-08T08:17:52.956Z,6.87
2023-07-08T08:20:25.683Z,6.33
2023-07-08T08:22:54.094Z,6.63
2023-07-08T08:25:23.879Z,6.80
2023-07-08T08:27:53.725Z,6.33
2023-07-08T08:30:22.038Z,6.60
2023-07-08T08:32:50.000Z,5.83
2023-07-08T08:35:18.150Z,6.47
2023-07-08T08:37:46.122Z,6.27
2023-07-08T08:40:17.759Z,5.90
2023-07-08T08:42:55.550Z,6.30
2023-07-08T08:45:26.631Z,6.07
2023-07-08T08:47:58.578Z,6.90
2023-07-08T08:50:32.001Z,6.60
2023-07-08T08:53:02.199Z,6.90
2023-07-08T08:55:30.605Z,7.13
2023-07-08T08:58:21.437Z,6.40
2023-07-08T09:00:56.220Z,6.63
2023-07-08T09:03:36.783Z,6.43
2023-07-08T09:06:11.781Z,5.70
2023-07-08T09:08:43.304Z,6.87
2023-07-08T09:11:42.321Z,5.60
2023-07-08T09:14:17.322Z,5.90
2023-07-08T09:16:49.072Z,5.30
2023-07-08T09:19:23.822Z,5.20
2023-07-08T09:21:55.973Z,6.00
2023-07-08T09:24:43.457Z,6.00
2023-07-08T09:27:11.336Z,6.10
2023-07-08T09:29:43.454Z,6.27
2023-07-08T09:32:18.224Z,6.70
2023-07-08T09:34:48.673Z,6.10
2023-07-08T09:37:27.909Z,6.07
2023-07-08T09:39:57.003Z,5.30
2023-07-08T09:42:29.614Z,5.43
2023-07-08T09:45:00.714Z,5.23
2023-07-08T09:47:34.137Z,5.80
2023-07-08T09:50:02.756Z,4.95
2023-07-08T09:52:32.134Z,5.28
2023-07-08T09:55:00.001Z,5.10
2023-07-08T09:57:31.142Z,4.80
2023-07-08T10:00:03.973Z,4.70
2023-07-08T10:02:34.918Z,4.40
2023-07-08T10:05:06.070Z,4.43
2023-07-08T10:07:34.195Z,3.80
2023-07-08T10:10:06.618Z,4.18
2023-07-08T10:12:35.596Z,3.65
2023-07-08T10:15:09.734Z,4.20
2023-07-08T10:17:40.890Z,4.07
2023-07-08T10:20:13.721Z,3.97
2023-07-08T10:22:46.918Z,3.40
2023-07-08T10:25:27.224Z,3.90
2023-07-08T10:28:01.839Z,3.58
2023-07-08T10:30:34.440Z,4.20
2023-07-08T10:33:19.139Z,3.72
2023-07-08T10:36:07.468Z,4.18
2023-07-08T10:38:44.778Z,4.00
2023-07-08T10:41:17.835Z,3.35
2023-07-08T10:43:52.689Z,3.80
2023-07-08T10:46:28.682Z,3.28
2023-07-08T10:49:06.965Z,4.10
2023-07-08T10:51:40.782Z,4.03
2023-07-08T10:54:26.054Z,3.35
2023-07-08T10:56:56.940Z,3.45
2023-07-08T10:59:35.648Z,3.33
2023-07-08T11:02:27.519Z,3.92
2023-07-08T11:05:00.653Z,3.60
2023-07-08T11:07:35.277Z,3.67
2023-07-08T11:10:07.064Z,4.00
2023-07-08T11:12:38.617Z,4.18
2023-07-08T11:15:14.339Z,4.40
2023-07-08T11:17:46.594Z,3.90
2023-07-08T11:20:19.348Z,4.53
2023-07-08T11:22:51.545Z,4.72
2023-07-08T11:25:21.193Z,3.90
2023-07-08T11:27:51.106Z,3.88
2023-07-08T11:30:23.256Z,3.70
2023-07-08T11:33:01.549Z,3.70
2023-07-08T11:35:37.602Z,4.05
2023-07-08T11:38:05.776Z,3.75
2023-07-08T11:40:34.373Z,3.70
2023-07-08T11:43:04.193Z,3.72
2023-07-08T11:45:34.042Z,3.30
2023-07-08T11:48:11.715Z,3.63
2023-07-08T11:50:43.031Z,4.30
2023-07-08T11:53:13.451Z,3.38
2023-07-08T11:55:46.588Z,3.47
2023-07-08T11:58:23.638Z,3.47
2023-07-08T12:01:00.696Z,3.28
2023-07-08T12:03:37.113Z,3.88
2023-07-08T12:06:07.497Z,3.65
2023-07-08T12:08:38.797Z,3.53
2023-07-08T12:11:12.933Z,3.65
2023-07-08T12:13:41.281Z,3.22
2023-07-08T12:16:12.280Z,3.55
2023-07-08T12:18:47.075Z,3.40
2023-07-08T12:21:15.414Z,3.63
2023-07-08T12:23:46.956Z,3.63
2023-07-08T12:26:15.169Z,3.22
2023-07-08T12:28:44.662Z,3.20
2023-07-08T12:31:16.835Z,3.60
2023-07-08T12:33:46.735Z,2.92
2023-07-08T12:36:21.458Z,2.70
2023-07-08T12:38:50.963Z,2.90
2023-07-08T12:41:22.924Z,3.20
2023-07-08T12:43:51.761Z,2.97
2023-07-08T12:46:21.983Z,3.30
2023-07-08T12:48:51.307Z,3.17
2023-07-08T12:51:21.861Z,2.83
2023-07-08T12:53:53.478Z,3.03
2023-07-08T12:56:23.868Z,2.58
2023-07-08T12:58:56.104Z,2.40
2023-07-08T13:01:26.273Z,2.78
2023-07-08T13:03:59.082Z,3.03
2023-07-08T13:06:31.091Z,2.55
2023-07-08T13:09:03.504Z,3.13
2023-07-08T13:11:31.672Z,2.75
2023-07-08T13:14:03.575Z,2.90
2023-07-08T13:16:33.629Z,2.88
2023-07-08T13:19:03.469Z,2.47
2023-07-08T13:21:32.358Z,2.75
2023-07-08T13:24:00.320Z,3.03
2023-07-08T13:26:30.099Z,2.75
2023-07-08T13:29:03.107Z,3.20
2023-07-08T13:31:35.016Z,3.08
2023-07-08T13:34:10.344Z,2.85
2023-07-08T13:36:39.439Z,3.60
2023-07-08T13:39:09.548Z,3.05
2023-07-08T13:41:38.536Z,3.00
2023-07-08T13:44:07.576Z,3.83
2023-07-08T13:46:37.857Z,3.20
2023-07-08T13:49:15.090Z,3.63
2023-07-08T13:51:43.849Z,3.03
2023-07-08T13:54:18.506Z,3.80
2023-07-08T13:56:46.445Z,3.17
2023-07-08T13:59:20.094Z,3.03
2023-07-08T14:01:48.413Z,3.70
2023-07-08T14:04:21.063Z,3.40
2023-07-08T14:06:49.110Z,3.35
2023-07-08T14:09:18.713Z,4.00
2023-07-08T14:11:47.407Z,4.18
2023-07-08T14:14:15.447Z,3.58
2023-07-08T14:16:45.570Z,3.97
2023-07-08T14:19:17.037Z,3.22
2023-07-08T14:21:46.542Z,3.85
2023-07-08T14:24:15.709Z,3.60
2023-07-08T14:26:44.762Z,4.17
2023-07-08T14:29:12.752Z,3.80
2023-07-08T14:31:41.570Z,3.87
2023-07-08T14:34:15.066Z,3.50
2023-07-08T14:36:42.942Z,3.90
2023-07-08T14:39:14.734Z,3.50
2023-07-08T14:41:43.480Z,3.37
2023-07-08T14:44:21.748Z,3.70
2023-07-08T14:46:51.220Z,3.67
2023-07-08T14:49:20.532Z,3.97
2023-07-08T14:51:48.564Z,3.57
2023-07-08T14:54:17.803Z,3.77
2023-07-08T14:56:45.853Z,3.50
2023-07-08T14:59:16.760Z,3.73
2023-07-08T15:01:45.302Z,3.73
2023-07-08T15:04:14.765Z,3.43
2023-07-08T15:06:46.512Z,4.47
2023-07-08T15:09:15.028Z,4.07
2023-07-08T15:11:46.568Z,3.83
2023-07-08T15:14:19.690Z,3.53
2023-07-08T15:16:47.871Z,3.50
2023-07-08T15:19:16.330Z,3.87
2023-07-08T15:21:44.419Z,3.87
2023-07-08T15:24:14.319Z,3.23
2023-07-08T15:26:45.533Z,3.30
2023-07-08T15:29:16.387Z,3.87
2023-07-08T15:31:44.869Z,3.73
2023-07-08T15:34:15.700Z,3.20
2023-07-08T15:36:43.603Z,3.70
2023-07-08T15:39:11.553Z,3.27
2023-07-08T15:41:40.691Z,3.77
2023-07-08T15:44:11.879Z,3.50
2023-07-08T15:46:43.163Z,3.97
2023-07-08T15:49:16.426Z,3.60
2023-07-08T15:51:47.588Z,3.80
2023-07-08T15:54:17.314Z,4.10
2023-07-08T15:56:45.860Z,3.60
2023-07-08T15:59:17.513Z,3.50
2023-07-08T16:01:46.379Z,4.00
2023-07-08T16:04:23.458Z,3.20
2023-07-08T16:06:51.742Z,3.70
2023-07-08T16:09:19.630Z,3.27
2023-07-08T16:11:47.621Z,3.93
2023-07-08T16:14:18.159Z,3.80
2023-07-08T16:16:46.181Z,4.30
2023-07-08T16:19:14.808Z,3.40
2023-07-08T16:21:43.350Z,3.37
2023-07-08T16:24:11.300Z,3.70
2023-07-08T16:26:39.988Z,3.57
2023-07-08T16:29:08.283Z,3.50
2023-07-08T16:31:37.639Z,3.60
2023-07-08T16:34:06.469Z,3.87
2023-07-08T16:36:34.384Z,4.20
2023-07-08T16:39:04.311Z,3.93
2023-07-08T16:41:36.509Z,4.40
2023-07-08T16:44:04.796Z,4.10
2023-07-08T16:46:32.737Z,4.10
2023-07-08T16:49:02.449Z,4.10
2023-07-08T16:51:30.696Z,4.17
2023-07-08T16:53:59.377Z,4.20
2023-07-08T16:56:27.247Z,4.60
2023-07-08T16:58:55.649Z,4.80
2023-07-08T17:01:25.538Z,4.30
2023-07-08T17:03:54.447Z,4.43
2023-07-08T17:06:24.197Z,4.60
2023-07-08T17:08:52.455Z,4.80
2023-07-08T17:11:20.356Z,8.37
2023-07-08T17:13:48.385Z,6.00
2023-07-08T17:16:18.865Z,6.60
2023-07-08T17:18:47.375Z,5.40
2023-07-08T17:21:17.132Z,4.50
2023-07-08T17:23:46.481Z,5.77
2023-07-08T17:26:14.347Z,6.37
2023-07-08T17:28:42.281Z,54.60
2023-07-08T17:31:11.953Z,47.07
2023-07-08T17:33:40.043Z,175.77
2023-07-08T17:36:11.350Z,51.53
2023-07-08T17:38:47.391Z,263.97
2023-07-08T17:41:17.184Z,186.70
2023-07-08T17:43:45.196Z,47.93
2023-07-08T17:46:14.602Z,30.23
2023-07-08T17:48:47.419Z,20.73
2023-07-08T17:51:15.659Z,29.33
2023-07-08T17:53:43.640Z,32.53
2023-07-08T17:56:19.669Z,31.50
2023-07-08T17:58:47.970Z,8.57
2023-07-08T18:01:15.938Z,11.07
2023-07-08T18:03:44.331Z,5.73
2023-07-08T18:06:12.954Z,4.20
2023-07-08T18:08:41.262Z,8.70
2023-07-08T18:11:09.449Z,9.63
2023-07-08T18:13:39.506Z,11.17
2023-07-08T18:16:12.867Z,5.87
2023-07-08T18:18:41.380Z,8.60
2023-07-08T18:21:14.539Z,4.37
2023-07-08T18:23:43.967Z,4.00
2023-07-08T18:26:19.419Z,4.00
2023-07-08T18:28:49.066Z,3.70
2023-07-08T18:31:18.854Z,3.40
2023-07-08T18:33:47.786Z,3.50
2023-07-08T18:36:18.638Z,4.80
2023-07-08T18:38:46.554Z,3.43
2023-07-08T18:41:16.184Z,3.23
2023-07-08T18:43:44.326Z,4.60
2023-07-08T18:46:14.408Z,4.00
2023-07-08T18:48:43.296Z,3.67
2023-07-08T18:51:14.370Z,3.33
2023-07-08T18:53:42.722Z,2.90
2023-07-08T18:56:18.133Z,6.37
2023-07-08T18:58:47.156Z,5.17
2023-07-08T19:01:18.745Z,7.07
2023-07-08T19:03:47.238Z,6.37
2023-07-08T19:06:17.409Z,5.50
2023-07-08T19:08:47.777Z,5.50
2023-07-08T19:11:20.615Z,3.43
2023-07-08T19:13:48.655Z,3.00
2023-07-08T19:16:19.387Z,3.93
2023-07-08T19:18:49.249Z,3.23
2023-07-08T19:21:19.435Z,3.90
2023-07-08T19:23:49.645Z,3.30
2023-07-08T19:26:20.422Z,4.27
2023-07-08T19:28:48.497Z,3.80
2023-07-08T19:31:22.253Z,3.53
2023-07-08T19:33:51.363Z,4.20
2023-07-08T19:36:21.188Z,5.00
2023-07-08T19:38:49.981Z,4.30
2023-07-08T19:41:19.578Z,4.00
2023-07-08T19:43:47.553Z,3.40
2023-07-08T19:46:16.966Z,4.03
2023-07-08T19:48:47.460Z,3.90
2023-07-08T19:51:16.493Z,3.90
2023-07-08T19:53:44.725Z,3.80
2023-07-08T19:56:13.675Z,3.70
2023-07-08T19:58:42.247Z,4.20
2023-07-08T20:01:10.090Z,3.40
2023-07-08T20:03:39.042Z,3.70
2023-07-08T20:06:15.828Z,3.80
2023-07-08T20:08:43.760Z,3.83
2023-07-08T20:11:15.008Z,3.37
2023-07-08T20:13:43.428Z,3.70
2023-07-08T20:16:16.600Z,3.40
2023-07-08T20:18:44.770Z,3.60
2023-07-08T20:21:15.514Z,4.33
2023-07-08T20:23:43.723Z,4.00
2023-07-08T20:26:24.072Z,4.87
2023-07-08T20:28:53.075Z,3.73
2023-07-08T20:31:21.227Z,3.77
2023-07-08T20:33:49.679Z,3.77
2023-07-08T20:36:21.111Z,3.20
2023-07-08T20:38:49.364Z,3.20
2023-07-08T20:41:17.672Z,2.93
2023-07-08T20:43:48.321Z,3.47
2023-07-08T20:46:21.851Z,2.87
2023-07-08T20:48:50.190Z,3.80
2023-07-08T20:51:19.416Z,3.70
2023-07-08T20:53:47.301Z,3.10
2023-07-08T20:56:18.002Z,3.13
2023-07-08T20:58:46.049Z,3.93
2023-07-08T21:01:14.056Z,3.50
2023-07-08T21:03:45.498Z,3.20
2023-07-08T21:06:20.284Z,3.43
2023-07-08T21:08:49.959Z,3.27
2023-07-08T21:11:18.663Z,3.50
2023-07-08T21:13:46.567Z,3.43
2023-07-08T21:16:16.063Z,3.80
2023-07-08T21:18:44.116Z,3.27
2023-07-08T21:21:12.629Z,3.70
2023-07-08T21:23:41.061Z,3.30
2023-07-08T21:26:18.920Z,3.80
2023-07-08T21:28:48.268Z,3.47
2023-07-08T21:31:16.881Z,3.50
2023-07-08T21:33:45.101Z,3.20
2023-07-08T21:36:23.876Z,3.40
2023-07-08T21:38:52.185Z,3.07
2023-07-08T21:41:21.676Z,3.40
2023-07-08T21:43:49.614Z,3.37
2023-07-08T21:46:17.647Z,3.50
2023-07-08T21:48:45.516Z,3.20
2023-07-08T21:51:18.484Z,3.70
2023-07-08T21:53:48.951Z,3.40
2023-07-08T21:56:17.116Z,3.03
2023-07-08T21:58:46.360Z,3.33
2023-07-08T22:01:19.545Z,3.80
2023-07-08T22:03:48.465Z,3.70
2023-07-08T22:06:17.177Z,3.37
2023-07-08T22:08:45.449Z,3.20
2023-07-08T22:11:16.067Z,3.23
2023-07-08T22:13:44.216Z,3.07
2023-07-08T22:16:16.308Z,2.87
2023-07-08T22:18:45.990Z,3.10
2023-07-08T22:21:17.194Z,3.07
2023-07-08T22:23:45.186Z,3.20
2023-07-08T22:26:13.080Z,3.50
2023-07-08T22:28:41.035Z,4.13
2023-07-08T22:31:18.053Z,3.50
2023-07-08T22:33:46.022Z,3.40
2023-07-08T22:36:13.904Z,3.60
2023-07-08T22:38:41.781Z,3.57
2023-07-08T22:41:12.550Z,4.07
2023-07-08T22:43:40.765Z,4.13
2023-07-08T22:46:10.708Z,3.23
2023-07-08T22:48:40.031Z,3.73
2023-07-08T22:51:10.204Z,3.50
2023-07-08T22:53:39.200Z,3.37
2023-07-08T22:56:07.170Z,3.47
2023-07-08T22:58:36.381Z,3.77
2023-07-08T23:01:05.500Z,3.70
2023-07-08T23:03:33.411Z,3.80
2023-07-08T23:06:02.877Z,3.43
2023-07-08T23:08:33.359Z,3.30
2023-07-08T23:11:01.467Z,3.97
2023-07-08T23:13:35.673Z,3.27
2023-07-08T23:16:10.947Z,3.50
2023-07-08T23:18:38.904Z,4.40
2023-07-08T23:21:09.085Z,4.10
2023-07-08T23:23:38.633Z,2.90
2023-07-08T23:26:09.375Z,3.60
2023-07-08T23:28:37.254Z,3.70
2023-07-08T23:31:05.081Z,3.70
2023-07-08T23:33:33.006Z,3.03
2023-07-08T23:36:01.344Z,3.53
2023-07-08T23:38:31.123Z,3.70
2023-07-08T23:40:59.009Z,3.73
2023-07-08T23:43:28.925Z,3.40
2023-07-08T23:45:56.844Z,3.83
2023-07-08T23:48:24.866Z,3.60
2023-07-08T23:50:52.756Z,4.40
2023-07-08T23:53:20.685Z,3.50
2023-07-08T23:55:49.939Z,4.10
2023-07-08T23:58:22.619Z,3.27
